Time;durP1;ratioP1;P1;durP2;ratioP2;P2;SDS_P1;SDS_P2;PMS_P1;PMS_P2;Temp;Humidity;BMP_temperature;BMP_pressure;BME280_temperature;BME280_humidity;BME280_pressure;Samples;Min_cycle;Max_cycle;Signal;HPM_P1;HPM_P2
2021/12/11 00:01:18;;;;;;;30.23;13.67;;;;;;;17.46;37.88;100627.59;5019868;28;20045;-71
2021/12/11 00:03:55;;;;;;;28.57;13.40;;;;;;;17.30;37.99;100635.28;5043518;28;20033;-71
2021/12/11 00:06:30;;;;;;;36.10;14.37;;;;;;;17.47;37.47;100631.09;5051361;28;20036;-71
2021/12/11 00:08:59;;;;;;;30.90;13.60;;;;;;;17.45;37.82;100636.44;5051466;28;20402;-71
2021/12/11 00:11:30;;;;;;;28.93;12.73;;;;;;;17.46;37.77;100635.53;5053312;28;20029;-71
2021/12/11 00:13:58;;;;;;;31.90;13.33;;;;;;;17.58;37.50;100643.84;5038847;28;20424;-71
2021/12/11 00:16:26;;;;;;;32.00;13.37;;;;;;;17.31;38.11;100652.03;5045777;28;20039;-71
2021/12/11 00:18:54;;;;;;;30.10;12.40;;;;;;;17.34;38.20;100646.59;5033313;28;20024;-71
2021/12/11 00:21:23;;;;;;;28.97;12.83;;;;;;;17.42;38.08;100655.06;5050280;28;20520;-71
2021/12/11 00:24:02;;;;;;;25.60;11.90;;;;;;;18.11;36.74;100663.66;5039905;28;20036;-71
2021/12/11 00:26:30;;;;;;;25.40;11.33;;;;;;;18.42;35.82;100663.16;5051526;28;20040;-71
2021/12/11 00:28:55;;;;;;;28.43;12.80;;;;;;;17.98;36.38;100673.91;5040082;28;20420;-71
2021/12/11 00:31:21;;;;;;;26.90;12.63;;;;;;;17.84;36.74;100681.53;5051023;28;20032;-71
2021/12/11 00:33:48;;;;;;;23.03;10.73;;;;;;;17.65;37.16;100692.88;5033472;28;20045;-71
2021/12/11 00:36:23;;;;;;;29.00;11.97;;;;;;;17.96;36.48;100694.28;5052106;28;20039;-71
2021/12/11 00:38:52;;;;;;;22.57;10.83;;;;;;;18.14;36.65;100700.53;5053023;28;20078;-71
2021/12/11 00:41:21;;;;;;;26.50;12.40;;;;;;;17.94;36.66;100701.41;5032902;28;20025;-71
2021/12/11 00:43:48;;;;;;;27.13;13.23;;;;;;;17.40;38.04;100704.47;5039097;28;20464;-71
2021/12/11 00:46:23;;;;;;;24.00;11.87;;;;;;;17.12;38.00;100716.13;5050787;28;20033;-71
2021/12/11 00:48:48;;;;;;;28.77;12.83;;;;;;;17.22;38.17;100707.84;5039566;28;20025;-71
2021/12/11 00:51:17;;;;;;;28.30;12.60;;;;;;;17.39;38.14;100723.91;5032138;28;20059;-71
2021/12/11 00:53:47;;;;;;;30.73;12.87;;;;;;;17.37;38.10;100725.72;5033923;28;20009;-71
2021/12/11 00:56:38;;;;;;;30.43;13.03;;;;;;;17.24;38.34;100727.13;5069694;28;20029;-71
2021/12/11 00:59:10;;;;;;;27.53;13.23;;;;;;;17.62;37.20;100738.78;5036551;28;20115;-71
2021/12/11 01:01:57;;;;;;;30.83;13.23;;;;;;;17.21;37.82;100740.47;5049852;28;20476;-71
2021/12/11 01:04:30;;;;;;;32.20;13.43;;;;;;;17.29;38.57;100741.03;5056385;28;20083;-71
2021/12/11 01:06:59;;;;;;;29.23;13.23;;;;;;;17.16;38.51;100752.97;5037339;28;20036;-71
2021/12/11 01:09:29;;;;;;;28.80;11.63;;;;;;;17.24;38.42;100756.19;5050321;28;20032;-71
2021/12/11 01:12:04;;;;;;;31.17;14.10;;;;;;;17.44;38.04;100753.63;5031282;28;20029;-71
2021/12/11 01:14:50;;;;;;;27.80;12.20;;;;;;;17.30;38.60;100761.25;5043742;28;20511;-71
2021/12/11 01:17:31;;;;;;;30.17;13.20;;;;;;;17.66;37.94;100758.03;5064492;28;20086;-71
2021/12/11 01:20:00;;;;;;;27.07;12.57;;;;;;;17.63;37.33;100763.47;5052743;28;20059;-71
2021/12/11 01:24:59;;;;;;;30.37;13.17;;;;;;;17.76;37.11;100777.91;5034339;28;20076;-71
2021/12/11 01:27:27;;;;;;;23.17;11.17;;;;;;;17.32;38.10;100780.53;5028997;28;20086;-71
2021/12/11 01:29:58;;;;;;;31.67;12.77;;;;;;;17.81;37.20;100783.84;5031225;28;20437;-71
2021/12/11 01:32:26;;;;;;;24.97;12.27;;;;;;;17.77;36.89;100792.81;5028057;28;20405;-71
2021/12/11 01:34:52;;;;;;;24.43;11.57;;;;;;;17.58;37.61;100805.06;5030071;28;20537;-71
2021/12/11 01:37:19;;;;;;;30.47;13.73;;;;;;;17.74;37.25;100803.53;5046149;28;20121;-71
2021/12/11 01:39:49;;;;;;;27.87;11.80;;;;;;;17.68;37.23;100809.06;5045439;28;20032;-71
2021/12/11 01:42:19;;;;;;;28.10;12.40;;;;;;;17.56;37.41;100814.84;5038916;28;20733;-71
2021/12/11 01:44:47;;;;;;;25.43;12.40;;;;;;;17.35;38.07;100821.81;5032307;28;20607;-71
2021/12/11 01:47:16;;;;;;;24.00;11.43;;;;;;;17.56;37.82;100820.97;5027938;28;20033;-71
2021/12/11 01:49:50;;;;;;;26.50;12.43;;;;;;;17.55;38.25;100835.09;5032815;28;20021;-71
2021/12/11 01:52:38;;;;;;;24.83;12.17;;;;;;;17.34;38.19;100830.66;5037057;28;20128;-71
2021/12/11 01:55:13;;;;;;;29.03;13.20;;;;;;;17.41;38.11;100833.00;5048492;28;20123;-71
2021/12/11 01:57:38;;;;;;;30.70;13.03;;;;;;;17.31;38.17;100836.94;5047875;28;20120;-70
2021/12/11 02:00:16;;;;;;;27.43;13.47;;;;;;;17.21;38.40;100841.69;5043983;28;20127;-71
2021/12/11 02:02:46;;;;;;;32.37;14.07;;;;;;;17.08;38.22;100857.13;5038105;28;20104;-70
2021/12/11 02:05:15;;;;;;;36.43;13.33;;;;;;;16.70;38.98;100861.13;5029627;28;20033;-71
2021/12/11 02:07:47;;;;;;;24.63;12.23;;;;;;;16.19;40.00;100860.22;5030493;28;20072;-71
2021/12/11 02:10:25;;;;;;;29.00;12.07;;;;;;;17.30;37.83;100864.25;5048254;28;20032;-71
2021/12/11 02:12:52;;;;;;;31.83;12.90;;;;;;;16.92;38.83;100862.09;5029012;28;20463;-70
2021/12/11 02:15:26;;;;;;;34.83;13.63;;;;;;;17.14;38.30;100861.31;5038217;28;20099;-70
2021/12/11 02:18:18;;;;;;;32.90;13.57;;;;;;;17.16;37.91;100879.75;5039512;28;20055;-71
2021/12/11 02:20:58;;;;;;;29.03;12.53;;;;;;;16.91;38.94;100880.63;5032478;28;20102;-71
2021/12/11 02:23:25;;;;;;;26.87;12.17;;;;;;;16.97;38.58;100891.00;5051245;28;20119;-71
2021/12/11 02:25:53;;;;;;;28.67;12.33;;;;;;;16.87;39.15;100895.72;5062885;28;20107;-71
2021/12/11 02:28:21;;;;;;;29.10;12.60;;;;;;;16.77;38.87;100892.53;5070427;28;20032;-70
2021/12/11 02:31:26;;;;;;;25.30;12.03;;;;;;;16.86;39.14;100899.25;5054643;28;20140;-71
2021/12/11 02:33:57;;;;;;;28.83;11.57;;;;;;;16.82;39.29;100907.34;5059858;28;20036;-71
2021/12/11 02:36:31;;;;;;;27.80;11.90;;;;;;;17.05;38.92;100902.13;5069865;28;20089;-71
2021/12/11 02:38:58;;;;;;;27.63;11.87;;;;;;;17.20;38.24;100911.28;5042085;28;20036;-71
2021/12/11 02:41:49;;;;;;;26.30;12.63;;;;;;;17.65;36.92;100909.59;5069217;28;20385;-71
2021/12/11 02:44:27;;;;;;;25.03;11.00;;;;;;;17.23;37.67;100929.66;5035278;28;20485;-71
2021/12/11 02:47:14;;;;;;;28.63;12.40;;;;;;;16.84;38.32;100926.63;5063327;28;20108;-70
2021/12/11 02:49:42;;;;;;;32.17;12.47;;;;;;;16.40;39.35;100922.81;5034867;28;20065;-71
2021/12/11 02:52:33;;;;;;;24.77;11.10;;;;;;;16.81;38.74;100929.38;5061955;28;20440;-70
2021/12/11 02:55:08;;;;;;;27.13;11.43;;;;;;;16.76;38.84;100935.66;5011011;28;20029;-71
2021/12/11 02:57:48;;;;;;;25.97;11.93;;;;;;;16.97;38.59;100938.50;5037271;28;20033;-71
2021/12/11 03:00:21;;;;;;;24.73;11.57;;;;;;;16.91;38.48;100944.00;5034946;28;20043;-71
2021/12/11 03:02:59;;;;;;;26.77;12.23;;;;;;;16.75;38.76;100939.22;5047715;28;20028;-70
2021/12/11 03:05:34;;;;;;;30.17;12.07;;;;;;;16.85;38.42;100938.91;5047160;28;20033;-71
2021/12/11 03:08:01;;;;;;;30.43;12.20;;;;;;;16.73;38.37;100934.91;5069011;28;20161;-71
2021/12/11 03:10:27;;;;;;;32.10;13.43;;;;;;;16.28;38.90;100933.75;5053725;28;20476;-71
2021/12/11 03:12:55;;;;;;;25.57;11.67;;;;;;;15.91;40.04;100934.91;5040337;28;20033;-71
2021/12/11 03:15:21;;;;;;;30.70;11.90;;;;;;;15.80;39.82;100947.53;5034746;28;20057;-71
2021/12/11 03:17:47;;;;;;;27.00;12.00;;;;;;;15.94;40.18;100940.09;5043943;28;20040;-70
2021/12/11 03:20:16;;;;;;;27.33;11.80;;;;;;;16.35;39.48;100943.19;5034427;28;20033;-71
2021/12/11 03:22:43;;;;;;;23.70;10.43;;;;;;;16.41;39.70;100948.25;5035249;28;20047;-70
2021/12/11 03:25:12;;;;;;;30.30;11.30;;;;;;;16.20;40.22;100946.31;5032850;28;20491;-71
2021/12/11 03:27:38;;;;;;;31.87;13.43;;;;;;;16.82;38.96;100945.16;5038456;28;20425;-70
2021/12/11 03:30:06;;;;;;;27.03;12.23;;;;;;;16.38;39.43;100951.00;5033593;28;20105;-70
2021/12/11 03:32:31;;;;;;;32.33;12.67;;;;;;;16.43;38.83;100953.47;5064425;28;20032;-69
2021/12/11 03:34:57;;;;;;;31.50;12.53;;;;;;;16.60;39.44;100955.56;5035350;28;20381;-70
2021/12/11 03:37:22;;;;;;;28.67;11.90;;;;;;;16.62;39.18;100953.72;5065306;28;20089;-70
2021/12/11 03:39:53;;;;;;;27.40;11.33;;;;;;;16.97;38.54;100954.34;5051837;28;20028;-70
2021/12/11 03:42:23;;;;;;;30.57;10.60;;;;;;;16.87;38.54;100959.06;5040590;28;20144;-70
2021/12/11 03:44:51;;;;;;;30.13;11.93;;;;;;;16.99;38.33;100973.63;5033874;28;20032;-70
2021/12/11 03:47:33;;;;;;;31.27;12.63;;;;;;;16.98;38.55;100981.59;5045540;28;20025;-70
2021/12/11 03:49:59;;;;;;;24.52;11.27;;;;;;;17.24;38.07;100983.34;5053870;28;20020;-70
2021/12/11 03:52:24;;;;;;;26.57;11.27;;;;;;;17.06;38.58;100977.81;5048649;28;20533;-70
2021/12/11 03:54:53;;;;;;;32.30;13.10;;;;;;;16.84;39.00;100979.41;5051608;28;20028;-70
2021/12/11 03:57:24;;;;;;;26.07;10.93;;;;;;;16.53;40.05;100968.09;5044734;28;20476;-70
2021/12/11 03:59:52;;;;;;;22.70;11.07;;;;;;;16.38;40.09;100974.75;5052900;28;20024;-70
2021/12/11 04:02:23;;;;;;;23.37;10.20;;;;;;;16.47;39.93;100981.47;5069195;28;20029;-70
2021/12/11 04:04:52;;;;;;;27.10;10.73;;;;;;;17.23;38.20;100976.34;5033714;28;20119;-70
2021/12/11 04:07:23;;;;;;;24.73;10.30;;;;;;;16.67;38.79;100983.47;5042560;28;20028;-70
2021/12/11 04:09:49;;;;;;;25.70;11.07;;;;;;;16.53;40.78;100983.09;5053290;28;20498;-70
2021/12/11 04:12:16;;;;;;;23.63;10.30;;;;;;;16.10;41.12;100985.28;5058383;28;20047;-71
2021/12/11 04:14:45;;;;;;;20.93;10.67;;;;;;;16.20;40.07;100972.69;5051716;28;20055;-70
2021/12/11 04:17:14;;;;;;;28.03;12.30;;;;;;;16.10;40.73;100988.78;5044743;28;20124;-70
2021/12/11 04:19:40;;;;;;;21.43;9.67;;;;;;;15.43;42.08;100981.91;5033638;28;20500;-70
2021/12/11 04:22:07;;;;;;;23.00;9.77;;;;;;;14.76;42.67;100982.78;5041332;28;20036;-70
2021/12/11 04:24:35;;;;;;;25.40;10.37;;;;;;;14.78;43.35;100989.78;5053232;28;20115;-70
2021/12/11 04:27:04;;;;;;;22.90;8.90;;;;;;;15.44;42.10;100999.44;5047662;28;20645;-70
2021/12/11 04:29:29;;;;;;;20.00;10.67;;;;;;;14.61;43.26;100998.91;5065667;28;20029;-70
2021/12/11 04:31:56;;;;;;;28.83;11.90;;;;;;;14.93;42.97;100997.28;5040172;28;20106;-70
2021/12/11 04:34:22;;;;;;;25.50;10.57;;;;;;;14.98;42.31;101008.56;5052753;28;20052;-70
2021/12/11 04:37:03;;;;;;;22.23;9.60;;;;;;;14.65;44.09;101012.91;5050824;28;20075;-70
2021/12/11 04:39:34;;;;;;;25.10;9.13;;;;;;;15.82;41.95;101004.56;5033076;28;20029;-70
2021/12/11 04:42:09;;;;;;;21.80;8.93;;;;;;;16.01;41.15;101010.16;5033467;28;20484;-70
2021/12/11 04:44:41;;;;;;;21.57;8.87;;;;;;;16.15;41.28;101008.88;5053903;28;20518;-70
2021/12/11 04:47:13;;;;;;;28.42;10.20;;;;;;;16.49;40.49;101010.47;5041209;28;20024;-70
2021/12/11 04:49:47;;;;;;;23.25;9.32;;;;;;;16.72;40.26;101013.22;5052149;28;20024;-70
2021/12/11 04:52:18;;;;;;;31.70;11.20;;;;;;;16.99;39.49;101015.03;5043649;28;20035;-70
2021/12/11 05:00:10;;;;;;;24.13;9.27;;;;;;;16.12;40.65;101030.94;5050421;28;20073;-70
2021/12/11 05:08:48;;;;;;;23.93;9.60;;;;;;;17.01;39.34;101024.63;5049692;28;20064;-70
2021/12/11 05:11:07;;;;;;;21.53;10.43;;;;;;;16.89;39.57;101030.31;5050093;28;20033;-70
2021/12/11 05:13:33;;;;;;;23.40;10.30;;;;;;;16.22;41.00;101039.44;5042133;28;20020;-70
2021/12/11 05:16:07;;;;;;;24.73;9.77;;;;;;;16.08;40.73;101038.06;5051265;28;20094;-71
2021/12/11 05:18:36;;;;;;;21.90;9.07;;;;;;;16.33;40.21;101039.09;5046725;28;20025;-70
2021/12/11 05:21:08;;;;;;;26.87;9.80;;;;;;;16.38;40.25;101039.84;5046378;28;20416;-70
2021/12/11 05:23:34;;;;;;;23.23;8.60;;;;;;;16.14;41.02;101046.69;5051688;28;20077;-71
2021/12/11 05:26:00;;;;;;;17.97;8.10;;;;;;;15.77;41.51;101038.03;5037711;28;20029;-71
2021/12/11 05:28:25;;;;;;;25.13;8.73;;;;;;;15.98;40.92;101044.53;5051229;28;20024;-71
2021/12/11 05:30:54;;;;;;;20.53;8.80;;;;;;;16.30;40.54;101042.69;5049151;28;20032;-71
2021/12/11 05:33:21;;;;;;;17.60;6.83;;;;;;;16.55;40.68;101048.06;5051112;28;20081;-71
2021/12/11 05:35:47;;;;;;;24.03;7.97;;;;;;;16.89;39.82;101046.16;5040448;28;20504;-70
2021/12/11 05:38:16;;;;;;;17.67;6.60;;;;;;;16.10;40.79;101054.72;5061418;28;20039;-71
2021/12/11 05:40:55;;;;;;;19.27;6.40;;;;;;;15.47;42.13;101055.56;5050789;28;20021;-70
2021/12/11 05:43:20;;;;;;;23.30;7.00;;;;;;;16.68;40.47;101051.19;5070040;28;20045;-71
2021/12/11 05:45:46;;;;;;;15.97;5.67;;;;;;;16.40;41.21;101054.72;5042539;28;20078;-71
2021/12/11 05:48:12;;;;;;;13.60;5.23;;;;;;;15.26;43.34;101068.41;5068749;28;20036;-71
2021/12/11 05:50:49;;;;;;;13.67;3.50;;;;;;;15.12;43.53;101065.28;5043400;28;20025;-70
2021/12/11 05:53:16;;;;;;;13.73;2.57;;;;;;;15.40;43.07;101073.31;5040464;28;20064;-71
2021/12/11 05:55:42;;;;;;;11.70;2.40;;;;;;;15.12;44.52;101075.81;5039912;28;20463;-71
2021/12/11 05:58:11;;;;;;;9.93;1.93;;;;;;;15.12;44.39;101081.91;5040793;28;20071;-71
2021/12/11 06:00:49;;;;;;;10.77;1.93;;;;;;;15.99;42.22;101085.81;5032188;28;20499;-71
2021/12/11 06:03:15;;;;;;;6.87;1.30;;;;;;;14.85;44.83;101084.34;5052194;28;20025;-70
2021/12/11 06:05:42;;;;;;;10.97;1.43;;;;;;;16.42;41.93;101087.16;5044297;28;20035;-70
2021/12/11 06:08:09;;;;;;;2.70;0.43;;;;;;;15.47;43.54;101092.44;5063342;28;20504;-70
2021/12/11 06:10:36;;;;;;;8.53;1.30;;;;;;;14.66;46.30;101097.06;5055062;28;20052;-71
2021/12/11 06:13:03;;;;;;;7.80;0.97;;;;;;;15.12;45.09;101107.41;5045631;28;20079;-70
2021/12/11 06:15:30;;;;;;;4.23;0.87;;;;;;;15.32;44.30;101104.25;5036244;28;20033;-70
2021/12/11 06:17:56;;;;;;;10.57;0.67;;;;;;;14.68;45.75;101120.69;5042803;28;20051;-71
2021/12/11 06:20:25;;;;;;;10.60;1.20;;;;;;;15.12;46.47;101117.94;5050959;28;20032;-71
2021/12/11 06:22:51;;;;;;;2.63;0.67;;;;;;;14.55;46.92;101130.59;5070818;28;20387;-71
2021/12/11 06:25:24;;;;;;;6.37;0.60;;;;;;;15.39;44.65;101133.03;5072671;28;20039;-70
2021/12/11 06:27:50;;;;;;;13.20;1.73;;;;;;;15.92;44.21;101139.59;5035093;28;20052;-70
2021/12/11 06:30:17;;;;;;;10.33;1.27;;;;;;;16.15;44.29;101140.72;5054233;28;20101;-71
2021/12/11 06:32:44;;;;;;;13.40;1.40;;;;;;;15.32;45.37;101152.53;5057026;28;20021;-71
2021/12/11 06:35:20;;;;;;;9.53;1.30;;;;;;;16.22;44.46;101150.19;5052652;28;20082;-71
2021/12/11 06:37:46;;;;;;;8.13;1.07;;;;;;;15.13;46.48;101167.06;5035331;28;20028;-71
2021/12/11 06:40:12;;;;;;;14.90;1.27;;;;;;;16.45;44.18;101179.41;5053468;28;20033;-71
2021/12/11 06:42:38;;;;;;;7.57;1.53;;;;;;;15.22;46.59;101182.59;5043293;28;20028;-70
2021/12/11 06:45:04;;;;;;;13.73;1.83;;;;;;;15.24;46.85;101186.09;5037026;28;20028;-70
2021/12/11 06:47:30;;;;;;;11.17;1.90;;;;;;;16.56;42.94;101187.00;5035580;28;20037;-71
2021/12/11 06:49:55;;;;;;;5.03;1.53;;;;;;;15.58;45.37;101190.53;5067335;28;20034;-71
2021/12/11 06:52:23;;;;;;;8.40;1.87;;;;;;;15.48;44.93;101196.91;5043833;28;20029;-71
2021/12/11 06:54:51;;;;;;;12.43;1.40;;;;;;;15.61;45.94;101206.25;5068990;28;20043;-70
2021/12/11 06:57:18;;;;;;;5.13;1.90;;;;;;;14.92;45.82;101220.16;5054988;28;20078;-71
2021/12/11 06:59:44;;;;;;;5.03;2.13;;;;;;;15.50;44.26;101214.44;5070604;28;20024;-70
2021/12/11 07:02:10;;;;;;;9.37;1.93;;;;;;;15.48;44.47;101224.13;5068900;28;20036;-71
2021/12/11 07:04:36;;;;;;;7.07;2.00;;;;;;;15.82;44.75;101233.00;5047870;28;20078;-71
2021/12/11 07:07:03;;;;;;;10.63;1.97;;;;;;;15.22;44.97;101246.69;5044876;28;20016;-71
2021/12/11 07:09:29;;;;;;;3.00;0.90;;;;;;;15.31;44.67;101248.22;5035458;28;20032;-71
2021/12/11 07:11:56;;;;;;;4.10;1.00;;;;;;;16.43;42.46;101248.94;5064045;28;20048;-71
2021/12/11 07:14:25;;;;;;;4.40;1.00;;;;;;;15.58;44.58;101251.13;5040940;28;20017;-71
2021/12/11 07:16:52;;;;;;;14.40;1.93;;;;;;;15.89;44.37;101263.56;5047684;28;20031;-71
2021/12/11 07:19:18;;;;;;;5.23;2.27;;;;;;;15.38;44.18;101270.88;5053480;28;20072;-70
2021/12/11 07:21:44;;;;;;;8.43;2.53;;;;;;;15.05;45.15;101281.28;5046191;28;20049;-70
2021/12/11 07:24:14;;;;;;;7.80;3.27;;;;;;;14.56;46.56;101287.50;5048093;28;20083;-70
2021/12/11 07:26:40;;;;;;;7.33;2.97;;;;;;;15.52;43.95;101291.63;5050399;28;20041;-70
2021/12/11 07:29:10;;;;;;;6.50;2.63;;;;;;;15.41;43.44;101294.53;5050819;28;20033;-70
2021/12/11 07:31:37;;;;;;;5.07;2.57;;;;;;;14.30;45.86;101295.88;5047316;28;20032;-70
2021/12/11 07:34:03;;;;;;;14.33;3.40;;;;;;;15.37;44.07;101298.16;5047300;28;20029;-70
2021/12/11 07:36:29;;;;;;;8.57;3.83;;;;;;;16.25;42.11;101303.06;5039468;28;20033;-70
2021/12/11 07:38:55;;;;;;;8.40;3.73;;;;;;;16.30;41.76;101311.72;5044161;28;20542;-71
2021/12/11 07:41:21;;;;;;;11.47;3.27;;;;;;;15.97;42.34;101319.59;5044981;28;20036;-70
2021/12/11 07:43:47;;;;;;;10.50;3.53;;;;;;;16.56;41.13;101318.09;5050396;28;20037;-70
2021/12/11 07:46:15;;;;;;;7.67;3.47;;;;;;;15.39;42.73;101332.34;5048327;28;20090;-70
2021/12/11 07:48:43;;;;;;;9.33;5.00;;;;;;;15.77;43.01;101343.75;5037226;28;20033;-70
2021/12/11 07:51:09;;;;;;;14.07;4.17;;;;;;;15.82;42.23;101341.91;5029540;28;20028;-71
2021/12/11 07:53:34;;;;;;;10.20;4.43;;;;;;;16.08;42.17;101349.19;5044871;28;20577;-70
2021/12/11 07:56:00;;;;;;;14.90;5.23;;;;;;;16.49;41.38;101353.47;5032631;28;20037;-71
2021/12/11 07:58:26;;;;;;;13.07;4.80;;;;;;;16.04;41.89;101358.09;5039693;28;20124;-71
2021/12/11 08:00:52;;;;;;;11.53;4.60;;;;;;;15.41;42.93;101372.69;5047857;28;20112;-71
2021/12/11 08:03:18;;;;;;;24.53;5.73;;;;;;;15.93;42.33;101378.56;5042871;28;20040;-70
2021/12/11 08:05:48;;;;;;;18.23;5.23;;;;;;;16.25;41.29;101387.47;5033512;28;20017;-71
2021/12/11 08:08:13;;;;;;;12.27;5.83;;;;;;;16.21;41.47;101386.69;5046209;28;20100;-71
2021/12/11 08:10:42;;;;;;;19.10;6.33;;;;;;;16.88;39.58;101392.88;5050297;28;20561;-71
2021/12/11 08:13:09;;;;;;;18.97;6.23;;;;;;;16.09;41.67;101393.13;5047867;28;20503;-71
2021/12/11 08:15:35;;;;;;;14.27;5.67;;;;;;;16.44;40.84;101399.31;5041708;28;20030;-71
2021/12/11 08:18:01;;;;;;;15.83;6.20;;;;;;;16.65;40.93;101407.59;5046556;28;20071;-71
2021/12/11 08:20:31;;;;;;;28.07;7.47;;;;;;;17.02;40.67;101411.00;5047809;28;20033;-70
2021/12/11 08:22:58;;;;;;;16.50;6.37;;;;;;;16.19;41.41;101424.56;5035665;28;20519;-70
2021/12/11 08:25:26;;;;;;;19.83;7.87;;;;;;;16.94;40.43;101422.66;5045642;28;20059;-70
2021/12/11 08:27:52;;;;;;;20.60;7.17;;;;;;;16.66;40.35;101430.41;5059462;28;20457;-70
2021/12/11 08:30:19;;;;;;;15.03;6.43;;;;;;;16.39;41.38;101438.13;5032449;28;20278;-70
2021/12/11 08:32:44;;;;;;;22.63;6.80;;;;;;;16.89;41.04;101442.19;5050788;28;20029;-71
2021/12/11 08:35:12;;;;;;;14.83;6.80;;;;;;;15.60;43.12;101447.78;5031878;28;20061;-70
2021/12/11 08:37:40;;;;;;;14.10;6.73;;;;;;;16.42;42.06;101453.03;5032979;28;20535;-70
2021/12/11 08:40:10;;;;;;;12.87;6.77;;;;;;;15.76;42.95;101464.16;5050439;28;20040;-70
2021/12/11 08:42:36;;;;;;;14.87;6.53;;;;;;;16.15;41.82;101462.47;5050162;28;20437;-70
2021/12/11 08:45:06;;;;;;;19.43;7.87;;;;;;;16.15;42.52;101467.72;5032595;28;20021;-70
2021/12/11 08:47:36;;;;;;;16.70;7.67;;;;;;;17.34;39.73;101457.66;5032285;28;20024;-70
2021/12/11 08:50:04;;;;;;;17.20;7.37;;;;;;;17.57;39.16;101461.41;5050589;28;20039;-70
2021/12/11 08:52:35;;;;;;;15.87;7.03;;;;;;;17.85;38.53;101474.69;5032995;28;20100;-70
2021/12/11 08:55:06;;;;;;;15.30;6.73;;;;;;;17.62;38.95;101480.66;5049565;28;20036;-70
2021/12/11 08:57:39;;;;;;;17.03;7.37;;;;;;;17.49;39.30;101481.91;5032936;28;20048;-70
2021/12/11 09:00:41;;;;;;;22.83;7.97;;;;;;;16.24;41.64;101491.25;5031799;28;20354;-70
2021/12/11 09:03:16;;;;;;;17.93;7.90;;;;;;;16.64;40.89;101498.22;5049852;28;20083;-70
2021/12/11 09:06:06;;;;;;;28.40;9.20;;;;;;;16.67;41.48;101495.50;5032233;28;20051;-69
2021/12/11 09:08:41;;;;;;;20.37;9.17;;;;;;;16.80;41.21;101496.03;5050115;28;20025;-70
2021/12/11 09:11:28;;;;;;;18.97;7.70;;;;;;;17.49;39.97;101501.28;5049981;28;20491;-70
2021/12/11 09:14:02;;;;;;;27.47;8.50;;;;;;;17.57;39.55;101495.75;5049868;28;20032;-70
2021/12/11 09:16:32;;;;;;;25.23;8.67;;;;;;;18.17;38.85;101494.00;5031835;28;20036;-70
2021/12/11 09:19:01;;;;;;;23.23;8.20;;;;;;;17.85;39.39;101508.19;5049863;28;20056;-71
2021/12/11 09:21:35;;;;;;;29.10;9.03;;;;;;;17.51;39.79;101514.47;5031928;28;20074;-70
2021/12/11 09:24:23;;;;;;;25.57;8.53;;;;;;;17.92;39.65;101520.34;5031065;28;20374;-70
2021/12/11 09:27:03;;;;;;;27.60;8.80;;;;;;;18.85;38.14;101520.06;5031981;28;20040;-70
2021/12/11 09:29:33;;;;;;;23.73;9.00;;;;;;;18.07;39.33;101525.16;5032606;28;20066;-71
2021/12/11 09:32:03;;;;;;;27.90;9.70;;;;;;;17.89;39.17;101528.34;5031828;28;20139;-70
2021/12/11 09:34:36;;;;;;;21.77;8.43;;;;;;;17.74;39.65;101527.03;5050000;28;20047;-71
2021/12/11 09:37:04;;;;;;;22.77;9.17;;;;;;;18.13;39.48;101540.88;5030152;28;20028;-70
2021/12/11 09:40:08;;;;;;;36.00;12.27;;;;;;;17.09;40.70;101545.50;5032369;28;20388;-70
2021/12/11 09:42:33;;;;;;;26.77;12.13;;;;;;;17.09;40.60;101547.25;4995479;28;20413;-72
2021/12/11 09:45:11;;;;;;;22.43;9.77;;;;;;;16.82;40.75;101556.75;5030825;28;20028;-71
2021/12/11 09:47:41;;;;;;;19.70;8.47;;;;;;;17.19;39.87;101558.47;5032014;28;20338;-71
2021/12/11 09:50:13;;;;;;;23.13;10.30;;;;;;;17.50;39.07;101555.00;5049777;28;20614;-71
2021/12/11 09:52:41;;;;;;;25.83;10.57;;;;;;;17.96;38.10;101551.09;5031414;28;20079;-72
2021/12/11 09:55:22;;;;;;;26.23;11.73;;;;;;;17.76;38.85;101556.91;5031308;28;20033;-72
2021/12/11 09:57:52;;;;;;;26.53;11.07;;;;;;;18.18;37.71;101564.53;5048921;28;20025;-71
2021/12/11 10:00:40;;;;;;;27.50;10.60;;;;;;;17.48;39.47;101568.25;5049711;28;20097;-72
2021/12/11 10:03:08;;;;;;;28.90;10.77;;;;;;;17.45;39.28;101563.06;5031749;28;20396;-72
2021/12/11 10:05:44;;;;;;;22.13;9.43;;;;;;;17.81;38.80;101571.72;5031414;28;20366;-72
2021/12/11 10:11:05;;;;;;;21.53;7.77;;;;;;;17.49;39.35;101574.41;5049428;28;20087;-72
2021/12/11 10:13:33;;;;;;;19.73;8.27;;;;;;;17.41;39.77;101583.41;5031246;28;20071;-72
2021/12/11 10:15:59;;;;;;;19.43;7.00;;;;;;;17.03;40.17;101593.19;5049292;28;20547;-72
2021/12/11 10:18:26;;;;;;;25.17;8.90;;;;;;;17.51;39.79;101604.31;5031673;28;20124;-72
2021/12/11 10:21:22;;;;;;;21.33;8.27;;;;;;;16.97;41.29;101603.91;5048580;28;20123;-71
2021/12/11 10:23:52;;;;;;;18.10;8.00;;;;;;;17.70;39.69;101613.47;5049078;28;20055;-72
2021/12/11 10:26:19;;;;;;;19.40;7.70;;;;;;;19.15;38.20;101606.50;5030974;28;20040;-72
2021/12/11 10:28:49;;;;;;;16.60;7.20;;;;;;;18.77;37.55;101611.22;5049495;28;20033;-72
2021/12/11 10:31:25;;;;;;;19.13;7.77;;;;;;;18.63;38.83;101608.16;5031555;28;20021;-72
2021/12/11 10:33:52;;;;;;;16.43;6.80;;;;;;;17.58;40.67;101617.31;5030269;28;20035;-72
2021/12/11 10:36:26;;;;;;;14.63;6.07;;;;;;;19.05;37.27;101620.94;5049561;28;20082;-72
2021/12/11 10:38:52;;;;;;;12.77;6.00;;;;;;;18.41;38.87;101614.13;5031374;28;20033;-71
2021/12/11 10:41:19;;;;;;;10.57;5.17;;;;;;;19.29;36.48;101616.63;5030755;28;20017;-71
2021/12/11 10:43:53;;;;;;;10.30;4.73;;;;;;;18.89;36.85;101614.41;5031394;28;20055;-71
2021/12/11 10:46:23;;;;;;;11.20;5.87;;;;;;;18.66;37.70;101613.34;5049201;28;20025;-71
2021/12/11 10:48:48;;;;;;;10.90;4.63;;;;;;;19.05;37.19;101613.00;5049771;28;20078;-71
2021/12/11 10:51:22;;;;;;;12.37;4.53;;;;;;;19.23;37.17;101618.59;5035202;28;20033;-71
2021/12/11 10:53:52;;;;;;;13.90;5.27;;;;;;;18.71;37.67;101624.69;5034600;28;20025;-71
2021/12/11 10:56:20;;;;;;;10.23;5.00;;;;;;;18.69;38.35;101637.09;5034115;28;20036;-72
2021/12/11 10:58:51;;;;;;;10.43;4.70;;;;;;;18.44;38.41;101635.19;5052759;28;20079;-71
2021/12/11 11:01:45;;;;;;;20.37;6.30;;;;;;;16.62;41.04;101639.88;5034151;28;20072;-71
2021/12/11 11:04:17;;;;;;;14.73;5.27;;;;;;;17.94;39.67;101634.88;5031151;28;20063;-71
2021/12/11 11:06:45;;;;;;;14.25;6.07;;;;;;;17.55;40.12;101642.97;5052723;28;20115;-72
2021/12/11 11:09:12;;;;;;;17.70;5.00;;;;;;;18.02;39.42;101635.53;5051676;28;20171;-71
2021/12/11 11:11:39;;;;;;;16.20;5.20;;;;;;;19.35;36.76;101644.69;5034673;28;20386;-71
2021/12/11 11:14:07;;;;;;;13.60;5.03;;;;;;;18.99;37.87;101634.41;5034236;28;20115;-72
2021/12/11 11:16:34;;;;;;;13.00;5.03;;;;;;;18.68;38.84;101643.28;5052271;28;20064;-71
2021/12/11 11:18:59;;;;;;;15.20;4.50;;;;;;;16.06;43.99;101662.16;5034299;28;20029;-71
2021/12/11 11:21:46;;;;;;;12.33;3.83;;;;;;;16.52;42.73;101655.06;5034559;28;20417;-71
2021/12/11 11:24:14;;;;;;;8.50;3.33;;;;;;;16.60;42.77;101657.53;5033648;28;20033;-72
2021/12/11 11:26:43;;;;;;;6.87;3.60;;;;;;;18.17;40.08;101654.53;5034820;28;20021;-71
2021/12/11 11:29:13;;;;;;;8.17;3.27;;;;;;;18.04;40.37;101654.88;5033716;28;20110;-72
2021/12/11 11:31:41;;;;;;;9.90;3.33;;;;;;;18.46;40.30;101649.25;5034578;28;20033;-71
2021/12/11 11:34:11;;;;;;;23.27;5.87;;;;;;;18.54;40.38;101658.75;5034150;28;20025;-72
2021/12/11 11:36:37;;;;;;;12.90;3.93;;;;;;;18.00;41.17;101665.56;5033766;28;20396;-72
2021/12/11 11:39:10;;;;;;;14.13;4.63;;;;;;;17.67;41.70;101673.47;5034069;28;20428;-71
2021/12/11 11:41:40;;;;;;;17.13;4.70;;;;;;;18.48;40.90;101675.69;5052549;28;20108;-71
2021/12/11 11:44:06;;;;;;;11.27;5.97;;;;;;;16.68;45.07;101679.34;5033120;28;20496;-71
2021/12/11 11:46:32;;;;;;;13.30;4.20;;;;;;;17.56;43.17;101687.00;5034376;28;20079;-71